sensor_id;sensor_type;location;lat;lon;timestamp;P1;durP1;ratioP1;P2;durP2;ratioP2
74674;SDS011;63200;48.810;12.352;2023-06-14T00:01:40;3.72;;;3.10;;
74674;SDS011;63200;48.810;12.352;2023-06-14T00:04:05;4.05;;;3.72;;
74674;SDS011;63200;48.810;12.352;2023-06-14T00:06:33;3.55;;;3.35;;
74674;SDS011;63200;48.810;12.352;2023-06-14T00:08:59;3.85;;;3.47;;
74674;SDS011;63200;48.810;12.352;2023-06-14T00:11:24;8.18;;;3.55;;
74674;SDS011;63200;48.810;12.352;2023-06-14T00:13:51;4.72;;;3.40;;
74674;SDS011;63200;48.810;12.352;2023-06-14T00:16:16;4.15;;;3.15;;
74674;SDS011;63200;48.810;12.352;2023-06-14T00:18:42;3.25;;;2.97;;
74674;SDS011;63200;48.810;12.352;2023-06-14T00:21:08;3.42;;;3.10;;
74674;SDS011;63200;48.810;12.352;2023-06-14T00:23:35;3.85;;;3.33;;
74674;SDS011;63200;48.810;12.352;2023-06-14T00:26:00;4.72;;;3.28;;
74674;SDS011;63200;48.810;12.352;2023-06-14T00:28:25;3.60;;;3.30;;
74674;SDS011;63200;48.810;12.352;2023-06-14T00:30:51;3.70;;;3.05;;
74674;SDS011;63200;48.810;12.352;2023-06-14T00:33:16;3.45;;;3.22;;
74674;SDS011;63200;48.810;12.352;2023-06-14T00:35:41;3.53;;;3.00;;
74674;SDS011;63200;48.810;12.352;2023-06-14T00:38:06;3.45;;;3.15;;
74674;SDS011;63200;48.810;12.352;2023-06-14T00:40:32;4.18;;;3.25;;
74674;SDS011;63200;48.810;12.352;2023-06-14T00:42:57;3.42;;;3.22;;
74674;SDS011;63200;48.810;12.352;2023-06-14T00:45:22;4.28;;;3.50;;
74674;SDS011;63200;48.810;12.352;2023-06-14T00:47:48;3.45;;;2.95;;
74674;SDS011;63200;48.810;12.352;2023-06-14T00:50:17;3.17;;;2.90;;
74674;SDS011;63200;48.810;12.352;2023-06-14T00:52:45;3.28;;;2.97;;
74674;SDS011;63200;48.810;12.352;2023-06-14T00:55:10;5.15;;;3.33;;
74674;SDS011;63200;48.810;12.352;2023-06-14T00:57:36;3.45;;;3.08;;
74674;SDS011;63200;48.810;12.352;2023-06-14T01:00:02;3.28;;;2.90;;
74674;SDS011;63200;48.810;12.352;2023-06-14T01:02:29;3.40;;;2.80;;
74674;SDS011;63200;48.810;12.352;2023-06-14T01:04:55;5.63;;;3.03;;
74674;SDS011;63200;48.810;12.352;2023-06-14T01:15:44;3.97;;;3.20;;
74674;SDS011;63200;48.810;12.352;2023-06-14T01:18:11;7.85;;;3.03;;
74674;SDS011;63200;48.810;12.352;2023-06-14T01:20:42;3.72;;;3.08;;
74674;SDS011;63200;48.810;12.352;2023-06-14T01:23:10;4.35;;;3.00;;
74674;SDS011;63200;48.810;12.352;2023-06-14T01:25:37;3.60;;;3.30;;
74674;SDS011;63200;48.810;12.352;2023-06-14T01:28:04;3.38;;;3.08;;
74674;SDS011;63200;48.810;12.352;2023-06-14T01:30:38;4.00;;;3.08;;
74674;SDS011;63200;48.810;12.352;2023-06-14T01:33:11;4.82;;;3.30;;
74674;SDS011;63200;48.810;12.352;2023-06-14T01:35:44;3.42;;;2.78;;
74674;SDS011;63200;48.810;12.352;2023-06-14T01:38:10;3.60;;;3.30;;
74674;SDS011;63200;48.810;12.352;2023-06-14T01:40:38;4.15;;;3.45;;
74674;SDS011;63200;48.810;12.352;2023-06-14T01:43:04;5.35;;;3.13;;
74674;SDS011;63200;48.810;12.352;2023-06-14T01:45:31;3.45;;;3.15;;
74674;SDS011;63200;48.810;12.352;2023-06-14T01:47:57;3.40;;;3.10;;
74674;SDS011;63200;48.810;12.352;2023-06-14T01:50:23;5.18;;;3.13;;
74674;SDS011;63200;48.810;12.352;2023-06-14T01:52:48;3.90;;;3.30;;
74674;SDS011;63200;48.810;12.352;2023-06-14T01:55:13;3.22;;;3.03;;
74674;SDS011;63200;48.810;12.352;2023-06-14T01:57:39;3.50;;;3.22;;
74674;SDS011;63200;48.810;12.352;2023-06-14T02:00:05;3.10;;;2.92;;
74674;SDS011;63200;48.810;12.352;2023-06-14T02:02:37;4.22;;;3.15;;
74674;SDS011;63200;48.810;12.352;2023-06-14T02:05:03;5.53;;;3.30;;
74674;SDS011;63200;48.810;12.352;2023-06-14T02:07:29;5.88;;;3.22;;
74674;SDS011;63200;48.810;12.352;2023-06-14T02:09:54;3.78;;;2.95;;
74674;SDS011;63200;48.810;12.352;2023-06-14T02:12:19;3.60;;;3.15;;
74674;SDS011;63200;48.810;12.352;2023-06-14T02:14:45;3.40;;;3.10;;
74674;SDS011;63200;48.810;12.352;2023-06-14T02:17:10;3.85;;;3.03;;
74674;SDS011;63200;48.810;12.352;2023-06-14T02:19:35;3.65;;;3.35;;
74674;SDS011;63200;48.810;12.352;2023-06-14T02:22:01;4.55;;;3.10;;
74674;SDS011;63200;48.810;12.352;2023-06-14T02:24:26;3.60;;;3.30;;
74674;SDS011;63200;48.810;12.352;2023-06-14T02:26:52;3.22;;;3.00;;
74674;SDS011;63200;48.810;12.352;2023-06-14T02:29:17;4.20;;;3.10;;
74674;SDS011;63200;48.810;12.352;2023-06-14T02:31:42;5.68;;;3.05;;
74674;SDS011;63200;48.810;12.352;2023-06-14T02:34:08;3.03;;;2.80;;
74674;SDS011;63200;48.810;12.352;2023-06-14T02:36:34;3.72;;;3.35;;
74674;SDS011;63200;48.810;12.352;2023-06-14T02:38:59;3.42;;;3.13;;
74674;SDS011;63200;48.810;12.352;2023-06-14T02:41:25;5.50;;;3.05;;
74674;SDS011;63200;48.810;12.352;2023-06-14T02:43:51;3.67;;;2.92;;
74674;SDS011;63200;48.810;12.352;2023-06-14T02:46:16;2.97;;;2.78;;
74674;SDS011;63200;48.810;12.352;2023-06-14T02:48:42;4.07;;;3.45;;
74674;SDS011;63200;48.810;12.352;2023-06-14T02:51:07;4.93;;;3.10;;
74674;SDS011;63200;48.810;12.352;2023-06-14T02:53:34;3.40;;;3.20;;
74674;SDS011;63200;48.810;12.352;2023-06-14T02:56:01;3.55;;;3.22;;
74674;SDS011;63200;48.810;12.352;2023-06-14T02:58:27;3.95;;;3.17;;
74674;SDS011;63200;48.810;12.352;2023-06-14T03:00:53;3.67;;;3.30;;
74674;SDS011;63200;48.810;12.352;2023-06-14T03:03:18;4.70;;;3.22;;
74674;SDS011;63200;48.810;12.352;2023-06-14T03:05:45;3.63;;;3.33;;
74674;SDS011;63200;48.810;12.352;2023-06-14T03:08:12;4.22;;;3.33;;
74674;SDS011;63200;48.810;12.352;2023-06-14T03:10:44;3.38;;;3.15;;
74674;SDS011;63200;48.810;12.352;2023-06-14T03:13:10;3.72;;;3.35;;
74674;SDS011;63200;48.810;12.352;2023-06-14T03:15:36;3.92;;;3.53;;
74674;SDS011;63200;48.810;12.352;2023-06-14T03:18:01;3.92;;;3.25;;
74674;SDS011;63200;48.810;12.352;2023-06-14T03:20:28;7.05;;;3.33;;
74674;SDS011;63200;48.810;12.352;2023-06-14T03:22:57;3.58;;;3.28;;
74674;SDS011;63200;48.810;12.352;2023-06-14T03:25:23;4.43;;;3.85;;
74674;SDS011;63200;48.810;12.352;2023-06-14T03:27:49;3.92;;;3.33;;
74674;SDS011;63200;48.810;12.352;2023-06-14T03:30:14;8.43;;;3.45;;
74674;SDS011;63200;48.810;12.352;2023-06-14T03:32:39;5.43;;;3.35;;
74674;SDS011;63200;48.810;12.352;2023-06-14T03:35:05;5.60;;;3.45;;
74674;SDS011;63200;48.810;12.352;2023-06-14T03:37:31;4.30;;;3.50;;
74674;SDS011;63200;48.810;12.352;2023-06-14T03:39:56;5.03;;;3.25;;
74674;SDS011;63200;48.810;12.352;2023-06-14T03:42:21;4.28;;;3.58;;
74674;SDS011;63200;48.810;12.352;2023-06-14T03:44:48;3.70;;;3.35;;
74674;SDS011;63200;48.810;12.352;2023-06-14T03:47:13;3.45;;;3.15;;
74674;SDS011;63200;48.810;12.352;2023-06-14T03:49:38;3.50;;;3.20;;
74674;SDS011;63200;48.810;12.352;2023-06-14T03:52:04;3.70;;;3.40;;
74674;SDS011;63200;48.810;12.352;2023-06-14T03:54:30;5.45;;;3.70;;
74674;SDS011;63200;48.810;12.352;2023-06-14T03:56:57;5.18;;;3.83;;
74674;SDS011;63200;48.810;12.352;2023-06-14T03:59:23;4.85;;;3.58;;
74674;SDS011;63200;48.810;12.352;2023-06-14T04:01:48;3.90;;;3.58;;
74674;SDS011;63200;48.810;12.352;2023-06-14T04:04:14;5.53;;;3.67;;
74674;SDS011;63200;48.810;12.352;2023-06-14T04:06:41;3.70;;;3.40;;
74674;SDS011;63200;48.810;12.352;2023-06-14T04:09:07;4.45;;;3.70;;
74674;SDS011;63200;48.810;12.352;2023-06-14T04:11:33;3.60;;;3.30;;
74674;SDS011;63200;48.810;12.352;2023-06-14T04:13:58;3.70;;;3.40;;
74674;SDS011;63200;48.810;12.352;2023-06-14T04:16:24;4.22;;;3.60;;
74674;SDS011;63200;48.810;12.352;2023-06-14T04:18:50;7.32;;;3.53;;
74674;SDS011;63200;48.810;12.352;2023-06-14T04:21:17;3.83;;;3.47;;
74674;SDS011;63200;48.810;12.352;2023-06-14T04:23:42;3.88;;;3.58;;
74674;SDS011;63200;48.810;12.352;2023-06-14T04:26:09;4.30;;;3.55;;
74674;SDS011;63200;48.810;12.352;2023-06-14T04:28:35;3.80;;;3.38;;
74674;SDS011;63200;48.810;12.352;2023-06-14T04:31:05;4.10;;;3.80;;
74674;SDS011;63200;48.810;12.352;2023-06-14T04:33:37;4.63;;;3.95;;
74674;SDS011;63200;48.810;12.352;2023-06-14T04:36:11;4.70;;;4.03;;
74674;SDS011;63200;48.810;12.352;2023-06-14T04:38:37;5.30;;;3.75;;
74674;SDS011;63200;48.810;12.352;2023-06-14T04:41:03;6.03;;;3.67;;
74674;SDS011;63200;48.810;12.352;2023-06-14T04:43:28;4.30;;;3.83;;
74674;SDS011;63200;48.810;12.352;2023-06-14T04:45:54;4.13;;;3.70;;
74674;SDS011;63200;48.810;12.352;2023-06-14T04:48:21;6.30;;;3.70;;
74674;SDS011;63200;48.810;12.352;2023-06-14T04:50:47;4.43;;;3.60;;
74674;SDS011;63200;48.810;12.352;2023-06-14T04:53:13;5.20;;;4.18;;
74674;SDS011;63200;48.810;12.352;2023-06-14T04:55:38;5.03;;;3.70;;
74674;SDS011;63200;48.810;12.352;2023-06-14T04:58:04;5.57;;;4.03;;
74674;SDS011;63200;48.810;12.352;2023-06-14T05:00:29;4.30;;;3.90;;
74674;SDS011;63200;48.810;12.352;2023-06-14T05:02:55;5.15;;;4.05;;
74674;SDS011;63200;48.810;12.352;2023-06-14T05:05:22;4.20;;;3.80;;
74674;SDS011;63200;48.810;12.352;2023-06-14T05:07:47;5.35;;;4.20;;
74674;SDS011;63200;48.810;12.352;2023-06-14T05:10:13;4.53;;;4.13;;
74674;SDS011;63200;48.810;12.352;2023-06-14T05:12:38;6.35;;;4.85;;
74674;SDS011;63200;48.810;12.352;2023-06-14T05:15:04;5.28;;;4.10;;
74674;SDS011;63200;48.810;12.352;2023-06-14T05:17:29;4.65;;;4.25;;
74674;SDS011;63200;48.810;12.352;2023-06-14T05:19:55;5.15;;;4.22;;
74674;SDS011;63200;48.810;12.352;2023-06-14T05:22:21;4.47;;;4.07;;
74674;SDS011;63200;48.810;12.352;2023-06-14T05:24:47;6.20;;;4.30;;
74674;SDS011;63200;48.810;12.352;2023-06-14T05:27:13;5.18;;;4.72;;
74674;SDS011;63200;48.810;12.352;2023-06-14T05:29:38;6.53;;;4.35;;
74674;SDS011;63200;48.810;12.352;2023-06-14T05:32:04;4.78;;;4.10;;
74674;SDS011;63200;48.810;12.352;2023-06-14T05:34:30;6.57;;;4.55;;
74674;SDS011;63200;48.810;12.352;2023-06-14T05:36:55;4.50;;;4.10;;
74674;SDS011;63200;48.810;12.352;2023-06-14T05:39:20;5.43;;;4.28;;
74674;SDS011;63200;48.810;12.352;2023-06-14T05:41:45;5.63;;;4.35;;
74674;SDS011;63200;48.810;12.352;2023-06-14T05:44:11;7.30;;;4.43;;
74674;SDS011;63200;48.810;12.352;2023-06-14T05:46:36;4.68;;;4.22;;
74674;SDS011;63200;48.810;12.352;2023-06-14T05:49:01;7.45;;;4.28;;
74674;SDS011;63200;48.810;12.352;2023-06-14T05:51:27;4.65;;;4.22;;
74674;SDS011;63200;48.810;12.352;2023-06-14T05:53:52;4.38;;;3.97;;
74674;SDS011;63200;48.810;12.352;2023-06-14T05:56:18;6.85;;;3.90;;
74674;SDS011;63200;48.810;12.352;2023-06-14T05:58:44;6.55;;;4.28;;
74674;SDS011;63200;48.810;12.352;2023-06-14T06:01:10;5.20;;;3.95;;
74674;SDS011;63200;48.810;12.352;2023-06-14T06:03:36;6.88;;;3.95;;
74674;SDS011;63200;48.810;12.352;2023-06-14T06:06:01;8.93;;;4.10;;
74674;SDS011;63200;48.810;12.352;2023-06-14T06:08:28;4.57;;;4.00;;
74674;SDS011;63200;48.810;12.352;2023-06-14T06:10:53;4.25;;;3.53;;
74674;SDS011;63200;48.810;12.352;2023-06-14T06:13:19;5.38;;;3.95;;
74674;SDS011;63200;48.810;12.352;2023-06-14T06:15:44;8.60;;;4.18;;
74674;SDS011;63200;48.810;12.352;2023-06-14T06:18:10;10.50;;;4.45;;
74674;SDS011;63200;48.810;12.352;2023-06-14T06:20:35;9.20;;;4.68;;
74674;SDS011;63200;48.810;12.352;2023-06-14T06:23:01;5.78;;;4.30;;
74674;SDS011;63200;48.810;12.352;2023-06-14T06:25:27;4.18;;;3.85;;
74674;SDS011;63200;48.810;12.352;2023-06-14T06:27:53;4.65;;;3.75;;
74674;SDS011;63200;48.810;12.352;2023-06-14T06:30:19;5.80;;;4.00;;
74674;SDS011;63200;48.810;12.352;2023-06-14T06:32:44;5.07;;;3.97;;
74674;SDS011;63200;48.810;12.352;2023-06-14T06:35:10;10.32;;;4.55;;
74674;SDS011;63200;48.810;12.352;2023-06-14T06:37:36;9.15;;;4.13;;
74674;SDS011;63200;48.810;12.352;2023-06-14T06:40:02;5.88;;;3.90;;
74674;SDS011;63200;48.810;12.352;2023-06-14T06:42:31;6.22;;;4.05;;
74674;SDS011;63200;48.810;12.352;2023-06-14T06:44:57;8.52;;;4.03;;
74674;SDS011;63200;48.810;12.352;2023-06-14T06:47:22;7.13;;;4.70;;
74674;SDS011;63200;48.810;12.352;2023-06-14T06:49:47;5.25;;;4.03;;
74674;SDS011;63200;48.810;12.352;2023-06-14T06:52:13;7.35;;;4.25;;
74674;SDS011;63200;48.810;12.352;2023-06-14T06:54:38;4.45;;;3.97;;
74674;SDS011;63200;48.810;12.352;2023-06-14T06:57:04;4.30;;;4.00;;
74674;SDS011;63200;48.810;12.352;2023-06-14T06:59:31;4.30;;;3.90;;
74674;SDS011;63200;48.810;12.352;2023-06-14T07:01:56;6.05;;;4.07;;
74674;SDS011;63200;48.810;12.352;2023-06-14T07:04:22;5.70;;;3.67;;
74674;SDS011;63200;48.810;12.352;2023-06-14T07:06:47;6.15;;;3.92;;
74674;SDS011;63200;48.810;12.352;2023-06-14T07:09:13;3.95;;;3.60;;
74674;SDS011;63200;48.810;12.352;2023-06-14T07:11:40;4.75;;;3.50;;
74674;SDS011;63200;48.810;12.352;2023-06-14T07:14:06;3.97;;;3.60;;
74674;SDS011;63200;48.810;12.352;2023-06-14T07:16:31;4.53;;;4.05;;
74674;SDS011;63200;48.810;12.352;2023-06-14T07:18:57;4.03;;;3.72;;
74674;SDS011;63200;48.810;12.352;2023-06-14T07:21:22;9.73;;;3.38;;
74674;SDS011;63200;48.810;12.352;2023-06-14T07:23:48;7.38;;;3.42;;
74674;SDS011;63200;48.810;12.352;2023-06-14T07:26:13;4.78;;;3.50;;
74674;SDS011;63200;48.810;12.352;2023-06-14T07:28:38;5.80;;;3.42;;
74674;SDS011;63200;48.810;12.352;2023-06-14T07:31:04;7.13;;;3.72;;
74674;SDS011;63200;48.810;12.352;2023-06-14T07:33:29;4.03;;;3.72;;
74674;SDS011;63200;48.810;12.352;2023-06-14T07:35:55;6.38;;;3.17;;
74674;SDS011;63200;48.810;12.352;2023-06-14T07:38:20;6.13;;;3.33;;
74674;SDS011;63200;48.810;12.352;2023-06-14T07:40:45;5.95;;;3.20;;
74674;SDS011;63200;48.810;12.352;2023-06-14T07:43:11;3.22;;;3.03;;
74674;SDS011;63200;48.810;12.352;2023-06-14T07:45:37;7.47;;;3.67;;
74674;SDS011;63200;48.810;12.352;2023-06-14T07:48:02;4.47;;;3.20;;
74674;SDS011;63200;48.810;12.352;2023-06-14T07:50:28;6.93;;;3.83;;
74674;SDS011;63200;48.810;12.352;2023-06-14T07:52:54;6.40;;;3.58;;
74674;SDS011;63200;48.810;12.352;2023-06-14T07:55:19;5.93;;;3.47;;
74674;SDS011;63200;48.810;12.352;2023-06-14T07:57:44;9.38;;;3.72;;
74674;SDS011;63200;48.810;12.352;2023-06-14T08:00:10;6.90;;;3.80;;
74674;SDS011;63200;48.810;12.352;2023-06-14T08:02:40;4.07;;;3.50;;
74674;SDS011;63200;48.810;12.352;2023-06-14T08:05:09;4.40;;;3.53;;
74674;SDS011;63200;48.810;12.352;2023-06-14T08:07:38;3.70;;;3.15;;
74674;SDS011;63200;48.810;12.352;2023-06-14T08:10:04;5.32;;;3.67;;
74674;SDS011;63200;48.810;12.352;2023-06-14T08:12:30;5.40;;;3.42;;
74674;SDS011;63200;48.810;12.352;2023-06-14T08:14:55;8.32;;;3.58;;
74674;SDS011;63200;48.810;12.352;2023-06-14T08:17:21;4.90;;;3.67;;
74674;SDS011;63200;48.810;12.352;2023-06-14T08:19:46;8.52;;;3.63;;
74674;SDS011;63200;48.810;12.352;2023-06-14T08:22:11;3.63;;;3.33;;
74674;SDS011;63200;48.810;12.352;2023-06-14T08:24:37;5.38;;;3.25;;
74674;SDS011;63200;48.810;12.352;2023-06-14T08:27:04;3.45;;;3.25;;
74674;SDS011;63200;48.810;12.352;2023-06-14T08:29:30;5.53;;;3.20;;
74674;SDS011;63200;48.810;12.352;2023-06-14T08:31:56;4.35;;;2.97;;
74674;SDS011;63200;48.810;12.352;2023-06-14T08:34:21;5.05;;;3.15;;
74674;SDS011;63200;48.810;12.352;2023-06-14T08:36:49;4.05;;;3.33;;
74674;SDS011;63200;48.810;12.352;2023-06-14T08:39:15;4.10;;;3.70;;
74674;SDS011;63200;48.810;12.352;2023-06-14T08:41:41;6.40;;;3.10;;
74674;SDS011;63200;48.810;12.352;2023-06-14T08:44:08;5.50;;;3.72;;
74674;SDS011;63200;48.810;12.352;2023-06-14T08:46:33;4.05;;;3.75;;
74674;SDS011;63200;48.810;12.352;2023-06-14T08:49:01;4.03;;;3.63;;
74674;SDS011;63200;48.810;12.352;2023-06-14T08:51:26;12.10;;;3.70;;
74674;SDS011;63200;48.810;12.352;2023-06-14T08:53:59;20.67;;;4.50;;
74674;SDS011;63200;48.810;12.352;2023-06-14T08:56:26;4.00;;;3.22;;
74674;SDS011;63200;48.810;12.352;2023-06-14T08:58:54;3.45;;;3.25;;
74674;SDS011;63200;48.810;12.352;2023-06-14T09:01:20;4.15;;;3.30;;
74674;SDS011;63200;48.810;12.352;2023-06-14T09:03:46;4.30;;;3.50;;
74674;SDS011;63200;48.810;12.352;2023-06-14T09:06:13;3.47;;;3.17;;
74674;SDS011;63200;48.810;12.352;2023-06-14T09:08:40;8.73;;;3.83;;
74674;SDS011;63200;48.810;12.352;2023-06-14T09:11:07;5.93;;;3.55;;
74674;SDS011;63200;48.810;12.352;2023-06-14T09:13:33;6.80;;;3.35;;
74674;SDS011;63200;48.810;12.352;2023-06-14T09:15:59;5.28;;;3.20;;
74674;SDS011;63200;48.810;12.352;2023-06-14T09:18:35;6.85;;;3.38;;
74674;SDS011;63200;48.810;12.352;2023-06-14T09:21:06;9.35;;;3.05;;
74674;SDS011;63200;48.810;12.352;2023-06-14T09:23:39;4.50;;;3.10;;
74674;SDS011;63200;48.810;12.352;2023-06-14T09:26:09;3.63;;;3.40;;
74674;SDS011;63200;48.810;12.352;2023-06-14T09:28:36;4.88;;;3.28;;
74674;SDS011;63200;48.810;12.352;2023-06-14T09:31:06;3.58;;;3.38;;
74674;SDS011;63200;48.810;12.352;2023-06-14T09:33:33;7.65;;;3.40;;
74674;SDS011;63200;48.810;12.352;2023-06-14T09:35:59;10.25;;;3.38;;
74674;SDS011;63200;48.810;12.352;2023-06-14T09:38:24;3.40;;;3.10;;
74674;SDS011;63200;48.810;12.352;2023-06-14T09:40:50;5.32;;;3.10;;
74674;SDS011;63200;48.810;12.352;2023-06-14T09:43:15;5.10;;;2.30;;
74674;SDS011;63200;48.810;12.352;2023-06-14T09:45:41;3.28;;;3.00;;
74674;SDS011;63200;48.810;12.352;2023-06-14T09:48:10;6.47;;;3.17;;
74674;SDS011;63200;48.810;12.352;2023-06-14T09:50:36;5.28;;;2.92;;
74674;SDS011;63200;48.810;12.352;2023-06-14T09:53:11;2.97;;;2.78;;
74674;SDS011;63200;48.810;12.352;2023-06-14T09:55:37;3.47;;;2.88;;
74674;SDS011;63200;48.810;12.352;2023-06-14T09:58:05;3.28;;;3.05;;
74674;SDS011;63200;48.810;12.352;2023-06-14T10:00:32;3.00;;;2.80;;
74674;SDS011;63200;48.810;12.352;2023-06-14T10:03:00;4.00;;;3.08;;
74674;SDS011;63200;48.810;12.352;2023-06-14T10:05:35;7.28;;;3.25;;
74674;SDS011;63200;48.810;12.352;2023-06-14T10:08:07;5.05;;;3.08;;
74674;SDS011;63200;48.810;12.352;2023-06-14T10:10:35;3.17;;;2.95;;
74674;SDS011;63200;48.810;12.352;2023-06-14T10:13:03;3.00;;;2.88;;
74674;SDS011;63200;48.810;12.352;2023-06-14T10:18:40;9.40;;;3.80;;
74674;SDS011;63200;48.810;12.352;2023-06-14T10:23:49;3.17;;;2.97;;
74674;SDS011;63200;48.810;12.352;2023-06-14T10:26:19;4.18;;;3.08;;
74674;SDS011;63200;48.810;12.352;2023-06-14T10:28:58;5.22;;;3.20;;
74674;SDS011;63200;48.810;12.352;2023-06-14T10:34:10;7.43;;;3.03;;
74674;SDS011;63200;48.810;12.352;2023-06-14T10:37:14;5.20;;;3.08;;
74674;SDS011;63200;48.810;12.352;2023-06-14T10:39:41;3.08;;;2.88;;
74674;SDS011;63200;48.810;12.352;2023-06-14T10:42:09;3.45;;;3.22;;
74674;SDS011;63200;48.810;12.352;2023-06-14T10:47:27;6.93;;;3.45;;
74674;SDS011;63200;48.810;12.352;2023-06-14T10:50:04;3.40;;;2.90;;
74674;SDS011;63200;48.810;12.352;2023-06-14T10:52:32;3.33;;;3.15;;
74674;SDS011;63200;48.810;12.352;2023-06-14T10:55:13;7.22;;;3.42;;
74674;SDS011;63200;48.810;12.352;2023-06-14T10:57:43;3.20;;;3.00;;
74674;SDS011;63200;48.810;12.352;2023-06-14T11:00:13;5.40;;;3.10;;
74674;SDS011;63200;48.810;12.352;2023-06-14T11:05:39;3.03;;;2.90;;
74674;SDS011;63200;48.810;12.352;2023-06-14T11:10:47;3.50;;;3.20;;
74674;SDS011;63200;48.810;12.352;2023-06-14T11:13:12;13.73;;;3.35;;
74674;SDS011;63200;48.810;12.352;2023-06-14T11:15:38;3.70;;;3.40;;
74674;SDS011;63200;48.810;12.352;2023-06-14T11:18:08;4.88;;;3.33;;
74674;SDS011;63200;48.810;12.352;2023-06-14T11:20:36;3.55;;;3.00;;
74674;SDS011;63200;48.810;12.352;2023-06-14T11:23:02;4.80;;;3.40;;
74674;SDS011;63200;48.810;12.352;2023-06-14T11:25:29;5.35;;;3.28;;
74674;SDS011;63200;48.810;12.352;2023-06-14T11:27:54;3.97;;;3.22;;
74674;SDS011;63200;48.810;12.352;2023-06-14T11:30:20;5.63;;;3.50;;
74674;SDS011;63200;48.810;12.352;2023-06-14T11:32:47;7.28;;;3.78;;
74674;SDS011;63200;48.810;12.352;2023-06-14T11:35:13;5.18;;;3.47;;
74674;SDS011;63200;48.810;12.352;2023-06-14T11:37:39;3.60;;;3.35;;
74674;SDS011;63200;48.810;12.352;2023-06-14T11:40:06;3.67;;;3.38;;
74674;SDS011;63200;48.810;12.352;2023-06-14T11:42:36;3.13;;;3.03;;
74674;SDS011;63200;48.810;12.352;2023-06-14T11:45:02;3.60;;;3.30;;
74674;SDS011;63200;48.810;12.352;2023-06-14T11:47:33;3.42;;;3.13;;
74674;SDS011;63200;48.810;12.352;2023-06-14T11:50:00;3.38;;;3.08;;
74674;SDS011;63200;48.810;12.352;2023-06-14T11:52:26;3.38;;;3.08;;
74674;SDS011;63200;48.810;12.352;2023-06-14T11:54:52;3.80;;;3.05;;
74674;SDS011;63200;48.810;12.352;2023-06-14T11:57:18;6.53;;;3.42;;
74674;SDS011;63200;48.810;12.352;2023-06-14T11:59:44;4.35;;;3.15;;
74674;SDS011;63200;48.810;12.352;2023-06-14T12:02:13;5.93;;;3.58;;
74674;SDS011;63200;48.810;12.352;2023-06-14T12:04:42;3.78;;;3.17;;
74674;SDS011;63200;48.810;12.352;2023-06-14T12:07:09;3.55;;;3.08;;
74674;SDS011;63200;48.810;12.352;2023-06-14T12:09:39;3.30;;;3.10;;
74674;SDS011;63200;48.810;12.352;2023-06-14T12:12:04;6.50;;;3.15;;
74674;SDS011;63200;48.810;12.352;2023-06-14T12:14:30;4.57;;;3.30;;
74674;SDS011;63200;48.810;12.352;2023-06-14T12:17:05;3.45;;;3.13;;
74674;SDS011;63200;48.810;12.352;2023-06-14T12:19:31;3.10;;;2.90;;
74674;SDS011;63200;48.810;12.352;2023-06-14T12:21:59;3.22;;;3.10;;
74674;SDS011;63200;48.810;12.352;2023-06-14T12:24:29;3.63;;;3.33;;
74674;SDS011;63200;48.810;12.352;2023-06-14T12:26:56;3.38;;;3.17;;
74674;SDS011;63200;48.810;12.352;2023-06-14T12:29:24;7.55;;;3.60;;
74674;SDS011;63200;48.810;12.352;2023-06-14T12:31:50;3.33;;;3.03;;
74674;SDS011;63200;48.810;12.352;2023-06-14T12:34:15;4.90;;;3.38;;
74674;SDS011;63200;48.810;12.352;2023-06-14T12:36:41;4.22;;;3.03;;
74674;SDS011;63200;48.810;12.352;2023-06-14T12:39:07;3.60;;;3.30;;
74674;SDS011;63200;48.810;12.352;2023-06-14T12:41:33;5.03;;;3.40;;
74674;SDS011;63200;48.810;12.352;2023-06-14T12:43:59;3.53;;;3.20;;
74674;SDS011;63200;48.810;12.352;2023-06-14T12:46:26;7.28;;;3.40;;
74674;SDS011;63200;48.810;12.352;2023-06-14T12:48:51;8.00;;;3.30;;
74674;SDS011;63200;48.810;12.352;2023-06-14T12:51:16;3.78;;;2.72;;
74674;SDS011;63200;48.810;12.352;2023-06-14T12:53:42;6.10;;;3.55;;
74674;SDS011;63200;48.810;12.352;2023-06-14T12:56:07;6.82;;;3.20;;
74674;SDS011;63200;48.810;12.352;2023-06-14T12:58:33;5.03;;;3.40;;
74674;SDS011;63200;48.810;12.352;2023-06-14T13:00:58;3.25;;;2.90;;
74674;SDS011;63200;48.810;12.352;2023-06-14T13:03:23;4.40;;;3.35;;
74674;SDS011;63200;48.810;12.352;2023-06-14T13:05:49;3.30;;;3.10;;
74674;SDS011;63200;48.810;12.352;2023-06-14T13:08:14;3.83;;;3.33;;
74674;SDS011;63200;48.810;12.352;2023-06-14T13:10:39;3.38;;;3.17;;
74674;SDS011;63200;48.810;12.352;2023-06-14T13:13:05;4.35;;;3.25;;
74674;SDS011;63200;48.810;12.352;2023-06-14T13:15:32;5.75;;;3.30;;
74674;SDS011;63200;48.810;12.352;2023-06-14T13:17:57;3.88;;;3.28;;
74674;SDS011;63200;48.810;12.352;2023-06-14T13:20:23;4.32;;;3.00;;
74674;SDS011;63200;48.810;12.352;2023-06-14T13:22:48;3.92;;;3.10;;
74674;SDS011;63200;48.810;12.352;2023-06-14T13:25:13;4.68;;;3.35;;
74674;SDS011;63200;48.810;12.352;2023-06-14T13:27:39;3.50;;;3.20;;
74674;SDS011;63200;48.810;12.352;2023-06-14T13:30:04;3.58;;;3.28;;
74674;SDS011;63200;48.810;12.352;2023-06-14T13:32:30;3.40;;;3.10;;
74674;SDS011;63200;48.810;12.352;2023-06-14T13:34:56;3.92;;;2.85;;
74674;SDS011;63200;48.810;12.352;2023-06-14T13:37:21;3.60;;;3.30;;
74674;SDS011;63200;48.810;12.352;2023-06-14T13:39:47;6.47;;;2.83;;
74674;SDS011;63200;48.810;12.352;2023-06-14T13:42:12;4.85;;;3.13;;
74674;SDS011;63200;48.810;12.352;2023-06-14T13:44:37;3.20;;;2.97;;
74674;SDS011;63200;48.810;12.352;2023-06-14T13:47:03;5.22;;;3.22;;
74674;SDS011;63200;48.810;12.352;2023-06-14T13:49:28;3.40;;;3.10;;
74674;SDS011;63200;48.810;12.352;2023-06-14T13:51:53;3.92;;;3.03;;
74674;SDS011;63200;48.810;12.352;2023-06-14T13:54:19;3.40;;;3.10;;
74674;SDS011;63200;48.810;12.352;2023-06-14T13:56:46;3.70;;;2.95;;
74674;SDS011;63200;48.810;12.352;2023-06-14T13:59:11;4.13;;;3.10;;
74674;SDS011;63200;48.810;12.352;2023-06-14T14:01:37;3.10;;;3.00;;
74674;SDS011;63200;48.810;12.352;2023-06-14T14:04:03;3.20;;;3.00;;
74674;SDS011;63200;48.810;12.352;2023-06-14T14:06:29;3.47;;;2.80;;
74674;SDS011;63200;48.810;12.352;2023-06-14T14:08:55;3.00;;;2.80;;
74674;SDS011;63200;48.810;12.352;2023-06-14T14:11:21;3.20;;;3.00;;
74674;SDS011;63200;48.810;12.352;2023-06-14T14:13:47;2.97;;;2.88;;
74674;SDS011;63200;48.810;12.352;2023-06-14T14:16:12;3.88;;;3.00;;
74674;SDS011;63200;48.810;12.352;2023-06-14T14:18:38;3.00;;;2.72;;
74674;SDS011;63200;48.810;12.352;2023-06-14T14:21:03;3.75;;;3.40;;
74674;SDS011;63200;48.810;12.352;2023-06-14T14:23:29;3.45;;;3.10;;
74674;SDS011;63200;48.810;12.352;2023-06-14T14:25:54;5.65;;;3.20;;
74674;SDS011;63200;48.810;12.352;2023-06-14T14:28:20;3.22;;;2.95;;
74674;SDS011;63200;48.810;12.352;2023-06-14T14:30:46;3.20;;;3.00;;
74674;SDS011;63200;48.810;12.352;2023-06-14T14:33:12;6.93;;;3.13;;
74674;SDS011;63200;48.810;12.352;2023-06-14T14:35:41;3.22;;;2.92;;
74674;SDS011;63200;48.810;12.352;2023-06-14T14:38:08;3.70;;;3.05;;
74674;SDS011;63200;48.810;12.352;2023-06-14T14:40:33;3.58;;;2.88;;
74674;SDS011;63200;48.810;12.352;2023-06-14T14:42:59;3.60;;;3.03;;
74674;SDS011;63200;48.810;12.352;2023-06-14T14:45:24;5.55;;;2.95;;
74674;SDS011;63200;48.810;12.352;2023-06-14T14:47:49;8.25;;;3.15;;
74674;SDS011;63200;48.810;12.352;2023-06-14T14:50:15;5.95;;;2.85;;
74674;SDS011;63200;48.810;12.352;2023-06-14T14:52:41;4.63;;;2.95;;
74674;SDS011;63200;48.810;12.352;2023-06-14T14:55:06;5.43;;;3.03;;